Time;durP1;ratioP1;P1;durP2;ratioP2;P2;SDS_P1;SDS_P2;PMS_P1;PMS_P2;Temp;Humidity;BMP_temperature;BMP_pressure;BME280_temperature;BME280_humidity;BME280_pressure;Samples;Min_cycle;Max_cycle;Signal;HPM_P1;HPM_P2
2023/01/16 00:01:01;;;;;;;44.70;25.80;;;6.30;87.70;;;;;;5033907;28;20032;-12
2023/01/16 00:03:26;;;;;;;46.08;27.17;;;6.30;87.70;;;;;;5050578;28;20048;-12
2023/01/16 00:05:52;;;;;;;42.63;25.95;;;6.30;87.70;;;;;;5050832;28;20532;-11
2023/01/16 00:08:18;;;;;;;44.75;25.90;;;6.30;87.70;;;;;;5050454;28;20485;-12
2023/01/16 00:10:44;;;;;;;48.08;27.38;;;6.30;87.70;;;;;;5050683;28;20029;-12
2023/01/16 00:13:12;;;;;;;44.33;26.80;;;6.30;87.70;;;;;;5050381;28;20432;-12
2023/01/16 00:15:44;;;;;;;41.47;25.70;;;6.30;87.80;;;;;;5050574;28;20052;-11
2023/01/16 00:18:10;;;;;;;43.65;26.08;;;6.20;87.80;;;;;;5050390;28;20040;-13
2023/01/16 00:20:36;;;;;;;42.67;26.77;;;6.30;87.80;;;;;;5050466;28;20436;-13
2023/01/16 00:23:01;;;;;;;40.70;24.60;;;6.30;87.80;;;;;;5050024;28;20392;-12
2023/01/16 00:25:27;;;;;;;37.13;22.65;;;6.30;87.80;;;;;;5071286;28;20548;-13
2023/01/16 00:27:53;;;;;;;38.58;22.40;;;6.30;87.80;;;;;;5072245;28;20044;-12
2023/01/16 00:30:19;;;;;;;42.85;24.27;;;6.20;87.90;;;;;;5072398;28;20120;-13
2023/01/16 00:32:45;;;;;;;38.63;22.42;;;6.30;87.90;;;;;;5072400;28;20036;-13
2023/01/16 00:35:11;;;;;;;35.75;22.38;;;6.20;87.90;;;;;;5072326;28;20433;-12
2023/01/16 00:37:37;;;;;;;31.45;20.58;;;6.30;87.90;;;;;;5072253;28;20032;-13
2023/01/16 00:40:04;;;;;;;36.67;22.65;;;6.30;87.90;;;;;;5072027;28;20033;-13
2023/01/16 00:42:29;;;;;;;44.28;25.38;;;6.30;88.00;;;;;;5072673;28;20109;-12
2023/01/16 00:44:55;;;;;;;43.13;24.77;;;6.30;87.90;;;;;;5072070;28;20090;-13
2023/01/16 00:47:21;;;;;;;46.42;26.55;;;6.30;87.90;;;;;;5072135;28;20025;-13
2023/01/16 00:49:47;;;;;;;41.03;24.98;;;6.30;87.80;;;;;;5072260;28;20021;-13
2023/01/16 00:52:13;;;;;;;42.13;25.08;;;6.30;87.80;;;;;;5072475;28;20036;-12
2023/01/16 00:54:39;;;;;;;41.60;25.50;;;6.30;87.80;;;;;;5072193;28;20025;-14
2023/01/16 00:57:05;;;;;;;41.50;23.90;;;6.20;87.80;;;;;;5072315;28;20029;-13
2023/01/16 00:59:30;;;;;;;37.65;23.70;;;6.20;87.80;;;;;;5072727;28;20028;-13
2023/01/16 01:01:56;;;;;;;38.22;23.85;;;6.20;87.80;;;;;;5072297;28;20029;-12
2023/01/16 01:04:22;;;;;;;40.90;23.90;;;6.20;87.90;;;;;;5072183;28;20107;-14
2023/01/16 01:06:48;;;;;;;39.25;23.10;;;6.20;87.80;;;;;;5072055;28;20113;-12
2023/01/16 01:09:14;;;;;;;36.75;22.27;;;6.20;87.90;;;;;;5072362;28;20154;-13
2023/01/16 01:11:43;;;;;;;36.17;22.67;;;6.20;87.90;;;;;;5072242;28;20115;-13
2023/01/16 01:14:09;;;;;;;35.25;21.98;;;6.20;87.90;;;;;;5072105;28;20037;-13
2023/01/16 01:16:34;;;;;;;37.05;22.27;;;6.20;87.90;;;;;;5072417;28;20479;-12
2023/01/16 01:19:00;;;;;;;35.47;21.92;;;6.20;87.90;;;;;;5071795;28;20021;-13
2023/01/16 01:21:26;;;;;;;31.52;17.83;;;6.20;87.90;;;;;;5072266;28;20074;-13
2023/01/16 01:23:54;;;;;;;32.03;17.90;;;6.20;87.90;;;;;;5072273;28;20127;-13
2023/01/16 01:26:21;;;;;;;27.77;16.88;;;6.20;87.90;;;;;;5072464;28;20045;-13
2023/01/16 01:28:46;;;;;;;35.13;20.33;;;6.20;88.00;;;;;;5071588;28;20040;-14
2023/01/16 01:31:13;;;;;;;32.92;20.40;;;6.20;88.00;;;;;;5072452;28;20025;-14
2023/01/16 01:33:40;;;;;;;35.00;21.33;;;6.20;87.90;;;;;;5072179;28;20060;-12
2023/01/16 01:36:07;;;;;;;31.55;19.48;;;6.20;87.90;;;;;;5071732;28;20499;-13
2023/01/16 01:38:34;;;;;;;22.73;14.45;;;6.20;87.90;;;;;;5071690;28;20392;-14
2023/01/16 01:41:00;;;;;;;26.20;16.30;;;6.20;87.90;;;;;;5071606;28;20043;-12
2023/01/16 01:43:46;;;;;;;31.05;17.70;;;6.20;87.90;;;;;;5071800;28;20016;-13
2023/01/16 01:46:17;;;;;;;35.53;19.65;;;6.30;87.90;;;;;;5071821;28;20487;-14
2023/01/16 01:48:43;;;;;;;38.13;21.17;;;6.30;87.80;;;;;;5071668;28;20041;-14
2023/01/16 01:51:15;;;;;;;33.67;20.77;;;6.30;87.80;;;;;;5072105;28;20036;-13
2023/01/16 01:53:55;;;;;;;37.40;20.42;;;6.40;87.70;;;;;;5075826;28;20025;-14
2023/01/16 01:56:36;;;;;;;36.67;21.63;;;6.40;87.60;;;;;;5075398;28;20063;-13
2023/01/16 01:59:20;;;;;;;37.30;21.30;;;6.40;87.70;;;;;;5074942;28;20032;-13
2023/01/16 02:01:47;;;;;;;33.78;18.85;;;6.40;87.70;;;;;;5075086;28;20035;-11
2023/01/16 02:04:19;;;;;;;34.40;20.20;;;6.40;87.60;;;;;;5075412;28;20066;-12
2023/01/16 02:06:56;;;;;;;41.45;22.70;;;6.40;87.50;;;;;;5074998;28;20055;-11
2023/01/16 02:09:24;;;;;;;37.38;22.45;;;6.40;87.40;;;;;;5075427;28;20036;-11
2023/01/16 02:12:07;;;;;;;40.95;24.25;;;6.40;87.40;;;;;;5075334;28;20116;-12
2023/01/16 02:14:38;;;;;;;43.10;24.17;;;6.40;87.30;;;;;;5075001;28;20488;-12
2023/01/16 02:20:21;;;;;;;44.15;26.08;;;6.30;87.20;;;;;;5075203;28;20546;-13
2023/01/16 02:23:11;;;;;;;36.33;20.67;;;6.20;87.20;;;;;;5074471;28;20441;-12
2023/01/16 02:26:04;;;;;;;41.63;24.02;;;6.20;87.30;;;;;;5075082;28;20047;-11
2023/01/16 02:28:57;;;;;;;45.80;26.20;;;6.20;87.30;;;;;;5074413;28;20068;-12
2023/01/16 02:31:48;;;;;;;44.65;26.02;;;6.20;87.40;;;;;;5074981;28;20094;-12
2023/01/16 02:34:38;;;;;;;45.35;25.92;;;6.20;87.40;;;;;;5074896;28;20028;-11
2023/01/16 02:37:10;;;;;;;43.65;25.60;;;6.20;87.30;;;;;;5074198;28;20489;-12
2023/01/16 02:39:45;;;;;;;44.13;25.35;;;6.10;87.40;;;;;;5074384;28;20119;-11
2023/01/16 02:42:23;;;;;;;43.45;27.15;;;6.10;87.40;;;;;;5074621;28;20028;-12
2023/01/16 02:44:54;;;;;;;49.20;25.67;;;6.10;87.50;;;;;;5074325;28;20028;-13
2023/01/16 02:47:50;;;;;;;45.38;24.90;;;6.10;87.50;;;;;;5074579;28;20028;-13
2023/01/16 02:50:57;;;;;;;47.58;25.80;;;6.10;87.50;;;;;;5074770;28;20024;-12
2023/01/16 02:53:52;;;;;;;45.95;25.10;;;6.10;87.50;;;;;;5074071;28;20396;-12
2023/01/16 02:56:27;;;;;;;46.28;25.10;;;6.10;87.50;;;;;;5072829;28;20139;-13
2023/01/16 02:58:53;;;;;;;44.55;24.35;;;6.10;87.50;;;;;;5073864;28;20484;-12
2023/01/16 03:01:19;;;;;;;45.78;24.98;;;6.10;87.50;;;;;;5073934;28;20036;-12
2023/01/16 03:04:05;;;;;;;42.83;24.50;;;6.10;87.50;;;;;;5074197;28;20028;-12
2023/01/16 03:06:55;;;;;;;41.63;23.38;;;6.10;87.60;;;;;;5073805;28;20032;-11
2023/01/16 03:09:27;;;;;;;43.58;23.67;;;6.10;87.60;;;;;;5074350;28;20021;-13
2023/01/16 03:11:56;;;;;;;44.17;23.63;;;6.10;87.60;;;;;;5073797;28;20029;-13
2023/01/16 03:14:31;;;;;;;47.67;26.58;;;6.00;87.60;;;;;;5074070;28;20052;-12
2023/01/16 03:17:07;;;;;;;48.10;25.23;;;6.10;87.60;;;;;;5073675;28;20146;-12
2023/01/16 03:19:51;;;;;;;44.47;24.95;;;6.00;87.70;;;;;;5073811;28;20553;-12
2023/01/16 03:22:23;;;;;;;;;;;6.10;87.70;;;;;;5073967;28;20074;-12
2023/01/16 03:24:57;;;;;;;43.80;24.02;;;6.10;87.70;;;;;;5073358;28;19911;-12
2023/01/16 03:27:26;;;;;;;;;;;6.10;87.80;;;;;;5073501;28;20059;-11
2023/01/16 03:30:10;;;;;;;40.35;23.88;;;6.10;87.70;;;;;;5073343;28;20356;-12
2023/01/16 03:33:12;;;;;;;44.63;23.92;;;6.10;87.70;;;;;;5073278;28;20029;-12
2023/01/16 03:35:54;;;;;;;44.08;24.58;;;6.10;87.70;;;;;;5064725;28;20052;-12
2023/01/16 03:38:23;;;;;;;40.83;22.42;;;6.10;87.70;;;;;;5073206;28;20024;-12
2023/01/16 03:40:50;;;;;;;41.00;24.27;;;6.10;87.70;;;;;;5073020;28;20443;-13
2023/01/16 03:43:34;;;;;;;43.65;24.10;;;6.20;87.70;;;;;;5073516;28;20017;-13
2023/01/16 03:46:14;;;;;;;44.25;23.23;;;6.20;87.70;;;;;;5073364;28;20086;-11
2023/01/16 03:48:53;;;;;;;43.25;22.80;;;6.20;87.80;;;;;;5073250;28;20031;-13
2023/01/16 03:51:29;;;;;;;44.42;23.90;;;6.20;87.70;;;;;;5072885;28;20028;-12
2023/01/16 03:54:15;;;;;;;35.75;19.92;;;6.20;87.80;;;;;;5073263;28;20028;-11
2023/01/16 03:56:56;;;;;;;32.35;18.52;;;6.20;87.80;;;;;;5073135;28;20028;-13
2023/01/16 03:59:22;;;;;;;28.88;17.17;;;6.30;87.90;;;;;;5072861;28;20029;-12
2023/01/16 04:02:25;;;;;;;34.58;20.20;;;6.30;87.90;;;;;;5072802;28;20488;-12
2023/01/16 04:05:10;;;;;;;30.23;15.65;;;6.40;87.90;;;;;;5071270;28;20032;-13
2023/01/16 04:07:54;;;;;;;27.67;16.67;;;6.40;87.90;;;;;;5073109;28;20393;-11
2023/01/16 04:10:25;;;;;;;25.90;16.25;;;6.50;87.90;;;;;;5072709;28;20039;-13
2023/01/16 04:13:01;;;;;;;32.47;18.65;;;6.60;87.80;;;;;;5072541;28;20035;-12
2023/01/16 04:15:30;;;;;;;29.17;16.95;;;6.60;87.70;;;;;;5072100;28;20023;-12
2023/01/16 04:17:58;;;;;;;31.73;17.98;;;6.60;87.60;;;;;;5072883;28;20082;-13
2023/01/16 04:20:25;;;;;;;32.28;18.40;;;6.60;87.50;;;;;;5072774;28;20115;-12
2023/01/16 04:22:51;;;;;;;33.50;19.17;;;6.60;87.50;;;;;;5072407;28;20146;-12
2023/01/16 04:25:18;;;;;;;30.10;17.25;;;6.60;87.50;;;;;;5073043;28;20479;-12
2023/01/16 04:27:44;;;;;;;36.30;20.33;;;6.70;87.50;;;;;;5072221;28;20049;-13
2023/01/16 04:30:11;;;;;;;29.50;17.42;;;6.70;87.50;;;;;;5072494;28;20024;-12
2023/01/16 04:32:37;;;;;;;35.90;20.55;;;6.70;87.50;;;;;;5072514;28;20031;-12
2023/01/16 04:35:04;;;;;;;42.53;21.85;;;6.70;87.50;;;;;;5072331;28;20372;-11
2023/01/16 04:37:30;;;;;;;31.80;18.60;;;6.70;87.40;;;;;;5072571;28;20078;-12
2023/01/16 04:39:58;;;;;;;37.58;21.95;;;6.70;87.40;;;;;;5072259;28;20032;-12
2023/01/16 04:42:25;;;;;;;37.08;21.70;;;6.60;87.50;;;;;;5072424;28;20065;-11
2023/01/16 04:44:51;;;;;;;40.28;22.20;;;6.60;87.50;;;;;;5072470;28;20028;-11
2023/01/16 04:47:16;;;;;;;35.92;20.88;;;6.60;87.50;;;;;;5072082;28;20445;-12
2023/01/16 04:49:42;;;;;;;38.40;20.60;;;6.50;87.50;;;;;;5070987;28;20032;-12
2023/01/16 04:52:10;;;;;;;27.00;16.55;;;6.50;87.50;;;;;;5072238;28;20032;-12
2023/01/16 04:54:36;;;;;;;24.92;15.68;;;6.50;87.60;;;;;;5072548;28;20024;-12
2023/01/16 04:57:02;;;;;;;27.25;16.27;;;6.50;87.60;;;;;;5071919;28;20028;-12
2023/01/16 04:59:28;;;;;;;25.98;15.68;;;6.50;87.70;;;;;;5071335;28;20109;-12
2023/01/16 05:01:54;;;;;;;32.25;16.95;;;6.60;87.80;;;;;;5072073;28;20064;-12
2023/01/16 05:04:20;;;;;;;25.52;15.38;;;6.60;87.80;;;;;;5072211;28;20039;-11
2023/01/16 05:06:47;;;;;;;32.83;17.88;;;6.60;87.80;;;;;;5071823;28;20379;-12
2023/01/16 05:09:13;;;;;;;29.60;17.38;;;6.70;87.80;;;;;;5071973;28;20039;-12
2023/01/16 05:11:39;;;;;;;28.35;16.40;;;6.70;87.80;;;;;;5072726;28;20031;-12
2023/01/16 05:14:07;;;;;;;19.83;12.57;;;6.70;87.80;;;;;;5070666;28;20028;-11
2023/01/16 05:16:35;;;;;;;35.38;19.42;;;6.70;87.80;;;;;;5072325;28;20423;-12
2023/01/16 05:19:01;;;;;;;34.28;18.42;;;6.70;87.80;;;;;;5071787;28;20028;-12
2023/01/16 05:21:27;;;;;;;35.05;19.67;;;6.70;87.70;;;;;;5072037;28;20027;-12
2023/01/16 05:23:54;;;;;;;36.60;21.67;;;6.70;87.60;;;;;;5072247;28;20027;-12
2023/01/16 05:26:19;;;;;;;27.88;16.88;;;6.70;87.60;;;;;;5073072;28;20025;-12
2023/01/16 05:28:45;;;;;;;54.30;29.42;;;6.60;87.60;;;;;;5075907;28;20040;-12
2023/01/16 05:31:11;;;;;;;51.13;28.52;;;6.60;87.60;;;;;;5074415;28;20025;-12
2023/01/16 05:33:37;;;;;;;44.97;25.25;;;6.60;87.70;;;;;;5075607;28;20396;-12
2023/01/16 05:36:03;;;;;;;45.65;26.08;;;6.60;87.80;;;;;;5074276;28;20028;-12
2023/01/16 05:38:29;;;;;;;43.78;25.17;;;6.50;87.80;;;;;;5075479;28;20029;-12
2023/01/16 05:40:54;;;;;;;47.10;26.90;;;6.50;87.90;;;;;;5075360;28;20040;-11
2023/01/16 05:43:20;;;;;;;47.70;26.98;;;6.50;87.90;;;;;;5075728;28;20063;-12
2023/01/16 05:45:46;;;;;;;38.17;22.75;;;6.40;88.00;;;;;;5074137;28;20074;-13
2023/01/16 05:48:12;;;;;;;43.40;24.77;;;6.40;88.00;;;;;;5073895;28;20044;-12
2023/01/16 05:50:38;;;;;;;42.13;24.50;;;6.40;88.00;;;;;;5075306;28;20422;-12
2023/01/16 05:53:04;;;;;;;33.70;19.33;;;6.40;88.00;;;;;;5075306;28;20033;-12
2023/01/16 05:55:30;;;;;;;37.28;20.55;;;6.50;88.00;;;;;;5075604;28;20121;-13
2023/01/16 05:57:56;;;;;;;38.85;22.05;;;6.50;88.00;;;;;;5075079;28;20526;-12
2023/01/16 06:00:22;;;;;;;36.33;20.58;;;6.50;88.00;;;;;;5075358;28;20025;-13
2023/01/16 06:02:48;;;;;;;40.50;24.23;;;6.50;88.00;;;;;;5075218;28;20048;-12
2023/01/16 06:05:14;;;;;;;34.72;20.67;;;6.50;88.00;;;;;;5075151;28;20424;-13
2023/01/16 06:07:43;;;;;;;26.27;16.75;;;6.50;88.00;;;;;;5075360;28;20086;-13
2023/01/16 06:10:12;;;;;;;29.73;18.52;;;6.60;88.00;;;;;;5075038;28;20020;-13
2023/01/16 06:12:38;;;;;;;27.38;17.55;;;6.50;88.00;;;;;;5074955;28;20032;-11
2023/01/16 06:15:04;;;;;;;32.42;18.83;;;6.60;88.00;;;;;;5074974;28;20028;-12
2023/01/16 06:17:30;;;;;;;34.85;20.33;;;6.60;88.00;;;;;;5075021;28;20107;-13
2023/01/16 06:19:56;;;;;;;43.40;25.08;;;6.60;87.90;;;;;;5074707;28;20108;-12
2023/01/16 06:22:22;;;;;;;36.60;20.83;;;6.70;87.90;;;;;;5074904;28;20023;-12
2023/01/16 06:24:48;;;;;;;42.08;24.63;;;6.70;87.80;;;;;;5074419;28;20396;-13
2023/01/16 06:27:14;;;;;;;45.85;25.75;;;6.70;87.80;;;;;;5074182;28;20048;-13
2023/01/16 06:29:41;;;;;;;35.55;21.10;;;6.70;87.70;;;;;;5074602;28;20025;-12
2023/01/16 06:32:07;;;;;;;32.85;18.98;;;6.60;87.60;;;;;;5074524;28;20544;-12
2023/01/16 06:34:33;;;;;;;33.08;20.13;;;6.60;87.60;;;;;;5074452;28;20151;-13
2023/01/16 06:36:58;;;;;;;32.42;20.55;;;6.60;87.50;;;;;;5073656;28;20024;-13
2023/01/16 06:39:24;;;;;;;32.53;20.15;;;6.70;87.40;;;;;;5074385;28;20191;-12
2023/01/16 06:41:50;;;;;;;36.22;22.05;;;6.70;87.30;;;;;;5074136;28;20029;-13
2023/01/16 06:44:16;;;;;;;38.22;22.33;;;6.70;87.20;;;;;;5074267;28;20028;-12
2023/01/16 06:46:41;;;;;;;39.92;22.38;;;6.80;87.20;;;;;;5074854;28;20021;-11
2023/01/16 06:49:08;;;;;;;39.60;23.40;;;6.80;87.30;;;;;;5073889;28;20025;-12
2023/01/16 06:51:34;;;;;;;46.78;25.98;;;6.70;87.20;;;;;;5074456;28;20028;-12
2023/01/16 06:54:02;;;;;;;42.03;24.95;;;6.70;87.20;;;;;;5074351;28;20032;-12
2023/01/16 06:56:29;;;;;;;39.40;21.92;;;6.70;87.20;;;;;;5074012;28;20063;-13
2023/01/16 06:58:55;;;;;;;32.15;19.33;;;6.70;87.20;;;;;;5073937;28;20039;-12
2023/01/16 07:01:21;;;;;;;52.03;28.00;;;6.60;87.20;;;;;;5074238;28;20028;-13
2023/01/16 07:03:46;;;;;;;48.53;28.17;;;6.60;87.30;;;;;;5074252;28;20490;-13
2023/01/16 07:06:15;;;;;;;46.38;26.67;;;6.70;87.20;;;;;;5073862;28;20032;-12
2023/01/16 07:08:41;;;;;;;48.97;28.25;;;6.60;87.20;;;;;;5073826;28;20503;-12
2023/01/16 07:11:07;;;;;;;50.55;27.55;;;6.60;87.20;;;;;;5073599;28;20052;-12
2023/01/16 07:13:32;;;;;;;36.58;21.67;;;6.50;87.20;;;;;;5074528;28;20096;-13
2023/01/16 07:24:18;;;;;;;55.42;27.85;;;6.60;87.40;;;;;;5074174;28;20035;-13
2023/01/16 07:26:47;;;;;;;46.45;25.88;;;6.70;87.50;;;;;;5073325;28;20048;-13
2023/01/16 07:29:13;;;;;;;44.90;25.23;;;6.70;87.40;;;;;;5073724;28;20020;-13
2023/01/16 07:31:40;;;;;;;44.90;25.80;;;6.80;87.30;;;;;;5072043;28;20027;-13
2023/01/16 07:34:06;;;;;;;44.13;25.80;;;6.80;87.30;;;;;;5073241;28;20028;-11
2023/01/16 07:36:31;;;;;;;45.03;26.27;;;6.90;87.20;;;;;;5073495;28;20086;-11
2023/01/16 07:38:57;;;;;;;46.53;26.45;;;6.90;87.10;;;;;;5072907;28;20021;-12
2023/01/16 07:41:23;;;;;;;51.03;28.40;;;6.90;87.10;;;;;;5073095;28;20036;-13
2023/01/16 07:43:50;;;;;;;55.47;28.92;;;6.90;87.00;;;;;;5073193;28;20029;-12
2023/01/16 07:46:15;;;;;;;55.28;29.92;;;6.90;86.90;;;;;;5072898;28;20508;-12
2023/01/16 07:48:41;;;;;;;65.78;33.67;;;6.90;86.90;;;;;;5072550;28;20112;-11
2023/01/16 07:51:07;;;;;;;70.55;35.30;;;6.90;86.80;;;;;;5073065;28;20033;-12
2023/01/16 07:53:33;;;;;;;60.85;29.85;;;6.90;86.80;;;;;;5072882;28;20025;-12
2023/01/16 07:56:01;;;;;;;47.15;25.98;;;6.90;86.90;;;;;;5073258;28;20162;-13
2023/01/16 07:58:28;;;;;;;52.55;27.38;;;6.90;86.90;;;;;;5073146;28;20024;-12
2023/01/16 08:00:57;;;;;;;49.67;28.25;;;7.00;86.70;;;;;;5072618;28;20028;-12
2023/01/16 08:03:24;;;;;;;53.85;28.73;;;7.10;86.80;;;;;;5072752;28;20032;-12
2023/01/16 08:05:55;;;;;;;46.00;26.75;;;7.10;86.70;;;;;;5072830;28;20027;-13
2023/01/16 08:08:21;;;;;;;45.25;26.00;;;7.20;86.80;;;;;;5072924;28;20040;-13
2023/01/16 08:10:46;;;;;;;42.13;24.02;;;7.30;87.00;;;;;;5072623;28;20059;-13
2023/01/16 08:13:12;;;;;;;49.15;26.67;;;7.40;86.90;;;;;;5072916;28;20016;-12
2023/01/16 08:15:38;;;;;;;42.38;23.17;;;7.50;86.60;;;;;;5072892;28;20078;-12
2023/01/16 08:18:04;;;;;;;40.05;22.85;;;7.60;86.80;;;;;;5072776;28;20024;-12
2023/01/16 08:20:29;;;;;;;42.40;23.17;;;7.80;86.30;;;;;;5072898;28;20037;-12
2023/01/16 08:22:57;;;;;;;42.78;23.88;;;7.80;85.90;;;;;;5072187;28;20028;-12
2023/01/16 08:25:24;;;;;;;44.80;23.85;;;7.90;86.00;;;;;;5072767;28;20032;-13
2023/01/16 08:27:50;;;;;;;41.03;23.27;;;7.90;86.00;;;;;;5072168;28;20075;-13
2023/01/16 08:30:16;;;;;;;36.70;21.65;;;7.90;85.80;;;;;;5072349;28;20068;-12
2023/01/16 08:32:42;;;;;;;34.30;19.35;;;7.90;85.70;;;;;;5072786;28;20472;-13
2023/01/16 08:35:09;;;;;;;39.55;21.92;;;7.90;85.80;;;;;;5072192;28;20036;-12
2023/01/16 08:37:35;;;;;;;30.70;19.02;;;7.90;86.00;;;;;;5072817;28;20035;-12
2023/01/16 08:40:03;;;;;;;33.95;19.95;;;7.90;86.10;;;;;;5072558;28;20025;-13
2023/01/16 08:53:32;;;;;;;26.35;15.85;;;8.30;86.50;;;;;;5072472;28;20048;-13
2023/01/16 08:55:58;;;;;;;26.58;15.50;;;8.40;86.70;;;;;;5072490;28;20431;-13
2023/01/16 08:58:24;;;;;;;27.75;15.75;;;8.50;86.50;;;;;;5072425;28;20021;-12
2023/01/16 09:00:50;;;;;;;24.48;14.32;;;8.60;86.40;;;;;;5074145;28;20406;-12
2023/01/16 09:03:19;;;;;;;22.80;13.60;;;8.70;86.40;;;;;;5076454;28;20360;-12
2023/01/16 09:05:45;;;;;;;23.92;14.48;;;8.80;86.00;;;;;;5076387;28;20033;-11
2023/01/16 09:08:11;;;;;;;27.50;15.32;;;8.90;85.20;;;;;;5076216;28;20036;-12
2023/01/16 09:10:37;;;;;;;23.88;13.75;;;8.90;84.90;;;;;;5076620;28;20464;-12
2023/01/16 09:15:48;;;;;;;28.98;16.00;;;9.10;84.40;;;;;;5076390;28;20392;-13
2023/01/16 09:18:14;;;;;;;23.17;14.63;;;9.10;84.80;;;;;;5076227;28;20032;-12
2023/01/16 09:20:40;;;;;;;19.40;12.00;;;9.30;84.90;;;;;;5075802;28;20549;-13
2023/01/16 09:23:06;;;;;;;17.08;10.63;;;9.40;83.80;;;;;;5075578;28;20047;-13
2023/01/16 09:25:33;;;;;;;19.35;11.93;;;9.50;82.90;;;;;;5075695;28;20073;-13
2023/01/16 09:27:59;;;;;;;17.42;10.63;;;9.60;82.20;;;;;;5075482;28;20052;-13
2023/01/16 09:30:27;;;;;;;19.23;11.30;;;9.70;82.10;;;;;;5075678;28;20040;-12
2023/01/16 09:32:53;;;;;;;14.82;8.65;;;9.80;81.50;;;;;;5075363;28;20416;-13
2023/01/16 09:35:19;;;;;;;15.43;9.27;;;9.90;81.20;;;;;;5074580;28;20020;-13
2023/01/16 09:37:45;;;;;;;14.60;9.30;;;9.90;81.10;;;;;;5075402;28;20028;-13
2023/01/16 09:40:23;;;;;;;17.95;10.38;;;9.90;81.20;;;;;;5075766;28;20017;-12
2023/01/16 09:45:43;;;;;;;17.58;10.50;;;10.00;81.20;;;;;;5075771;28;20027;-13
2023/01/16 09:48:27;;;;;;;16.45;9.25;;;10.20;81.40;;;;;;5075504;28;20024;-13
2023/01/16 09:50:56;;;;;;;18.45;9.98;;;10.30;81.40;;;;;;5075152;28;20492;-13
2023/01/16 09:59:38;;;;;;;13.18;7.70;;;10.80;79.30;;;;;;5074952;28;20112;-13
2023/01/16 10:02:25;;;;;;;12.55;8.07;;;10.90;79.00;;;;;;5075062;28;20043;-12
2023/01/16 10:04:53;;;;;;;11.20;7.10;;;11.10;77.40;;;;;;5074820;28;20507;-12
2023/01/16 10:07:47;;;;;;;11.23;6.63;;;11.10;78.60;;;;;;5074935;28;20031;-12
2023/01/16 10:10:13;;;;;;;10.00;6.00;;;11.00;76.60;;;;;;5075332;28;20052;-12
2023/01/16 10:12:39;;;;;;;8.38;5.22;;;10.80;75.50;;;;;;5074031;28;20510;-12
2023/01/16 10:15:14;;;;;;;7.22;4.35;;;10.50;75.50;;;;;;5074591;28;20032;-14
2023/01/16 10:18:23;;;;;;;5.47;3.92;;;10.40;77.40;;;;;;5075265;28;20027;-13
2023/01/16 10:21:08;;;;;;;5.65;3.88;;;10.20;76.30;;;;;;5063928;28;20033;-12
2023/01/16 10:23:43;;;;;;;5.72;3.95;;;9.90;74.50;;;;;;5074699;28;20043;-13
2023/01/16 10:26:14;;;;;;;6.80;4.30;;;9.80;76.90;;;;;;5073265;28;20388;-13
2023/01/16 10:28:42;;;;;;;7.88;4.20;;;9.70;76.50;;;;;;5074463;28;20044;-12
2023/01/16 10:31:20;;;;;;;5.57;3.67;;;9.60;77.10;;;;;;5074350;28;20495;-12
2023/01/16 10:34:09;;;;;;;6.68;4.20;;;9.40;77.70;;;;;;5074619;28;20028;-13
2023/01/16 10:36:41;;;;;;;6.85;3.83;;;9.40;78.10;;;;;;5074903;28;20052;-13
2023/01/16 10:39:11;;;;;;;6.63;3.92;;;9.40;77.70;;;;;;5074168;28;20481;-13
2023/01/16 10:50:09;;;;;;;7.22;4.55;;;9.30;77.10;;;;;;5074884;28;20052;-13
2023/01/16 10:52:36;;;;;;;8.85;4.40;;;9.20;76.00;;;;;;5074260;28;20451;-13
2023/01/16 10:55:03;;;;;;;6.25;3.65;;;9.10;76.90;;;;;;5073876;28;20024;-13
2023/01/16 10:57:29;;;;;;;6.47;4.13;;;8.90;76.60;;;;;;5074302;28;20025;-13
2023/01/16 11:00:13;;;;;;;5.70;3.85;;;8.90;76.60;;;;;;5074289;28;20134;-12
2023/01/16 11:02:43;;;;;;;;;;;8.80;77.70;;;;;;5073563;28;20032;-13
2023/01/16 11:05:38;;;;;;;5.40;3.00;;;8.80;78.50;;;;;;5073823;28;19911;-13
2023/01/16 11:08:11;;;;;;;7.43;3.15;;;8.80;77.40;;;;;;5035004;28;20037;-12
2023/01/16 11:10:39;;;;;;;4.10;2.60;;;8.90;77.80;;;;;;5051794;28;20029;-13
2023/01/16 11:18:49;;;;;;;4.80;2.78;;;9.20;76.40;;;;;;5051831;28;20102;-13
2023/01/16 11:21:32;;;;;;;3.40;2.28;;;9.40;75.60;;;;;;5051323;28;20074;-13
2023/01/16 11:24:25;;;;;;;3.00;2.30;;;9.30;76.40;;;;;;5051586;28;20025;-12
2023/01/16 11:26:54;;;;;;;3.15;2.25;;;9.20;76.70;;;;;;5047606;28;20045;-14
2023/01/16 11:29:23;;;;;;;2.35;1.77;;;9.30;76.50;;;;;;5051437;28;20167;-13
2023/01/16 11:31:59;;;;;;;1.90;1.52;;;9.30;74.90;;;;;;5051336;28;20035;-13
2023/01/16 11:34:27;;;;;;;2.40;1.70;;;9.20;75.60;;;;;;5051384;28;20044;-12
2023/01/16 11:37:00;;;;;;;1.92;1.73;;;9.10;76.20;;;;;;5050963;28;20032;-11
2023/01/16 11:39:30;;;;;;;2.77;1.77;;;9.10;75.90;;;;;;5051285;28;20037;-11
2023/01/16 11:41:58;;;;;;;2.05;1.60;;;9.20;76.30;;;;;;5051334;28;20036;-11
2023/01/16 11:47:22;;;;;;;3.50;1.90;;;9.10;75.60;;;;;;5053698;28;20102;-11
2023/01/16 11:49:50;;;;;;;1.92;1.73;;;9.00;75.60;;;;;;5053005;28;20163;-11
2023/01/16 11:52:28;;;;;;;2.28;2.08;;;9.10;75.60;;;;;;5053262;28;20082;-11
2023/01/16 11:55:00;;;;;;;2.10;1.90;;;9.20;76.00;;;;;;5053157;28;20052;-12
2023/01/16 11:57:44;;;;;;;1.38;1.10;;;9.40;75.50;;;;;;5053166;28;20060;-12
2023/01/16 12:00:31;;;;;;;2.17;1.75;;;9.50;75.80;;;;;;5052935;28;20048;-12
2023/01/16 12:03:25;;;;;;;1.75;1.65;;;9.60;74.90;;;;;;5052760;28;20086;-12
2023/01/16 12:06:09;;;;;;;3.15;1.38;;;9.70;74.30;;;;;;5052736;28;20033;-11
2023/01/16 12:08:41;;;;;;;;;;;9.60;73.90;;;;;;5053059;28;20037;-12
2023/01/16 12:11:29;;;;;;;1.42;1.25;;;9.60;74.70;;;;;;5053565;28;19912;-11
2023/01/16 12:14:25;;;;;;;2.58;1.40;;;9.60;74.30;;;;;;5052953;28;20025;-10
2023/01/16 12:17:34;;;;;;;1.23;1.13;;;9.60;74.70;;;;;;5052483;28;20064;-11
2023/01/16 12:20:00;;;;;;;1.20;1.10;;;9.40;73.70;;;;;;5052192;28;20028;-11
2023/01/16 12:22:51;;;;;;;3.05;1.58;;;9.20;73.20;;;;;;5052485;28;20104;-11
2023/01/16 12:25:32;;;;;;;2.40;1.80;;;9.20;74.60;;;;;;5052822;28;20025;-12
2023/01/16 12:28:33;;;;;;;1.55;1.45;;;9.00;74.90;;;;;;5065178;28;20059;-12
2023/01/16 12:31:36;;;;;;;1.83;1.63;;;8.90;74.90;;;;;;5073002;28;20466;-12
2023/01/16 12:34:32;;;;;;;2.08;1.52;;;8.90;75.20;;;;;;5072454;28;20085;-12
2023/01/16 12:37:17;;;;;;;3.33;1.80;;;8.90;75.80;;;;;;5072328;28;20036;-12
2023/01/16 12:40:15;;;;;;;3.15;2.10;;;8.80;75.20;;;;;;5072530;28;20033;-12
2023/01/16 12:43:23;;;;;;;3.25;1.88;;;8.70;76.20;;;;;;5072794;28;20101;-11
2023/01/16 12:45:55;;;;;;;1.88;1.70;;;8.50;76.20;;;;;;5072271;28;20048;-11
2023/01/16 12:48:29;;;;;;;3.25;1.80;;;8.50;76.00;;;;;;5072346;28;20111;-12
2023/01/16 12:51:07;;;;;;;2.38;2.17;;;8.40;75.80;;;;;;5072482;28;20029;-12
2023/01/16 12:54:02;;;;;;;2.60;1.80;;;8.30;76.60;;;;;;5072233;28;20104;-11
2023/01/16 12:56:42;;;;;;;2.67;2.03;;;8.30;76.70;;;;;;5072392;28;20025;-11
2023/01/16 12:59:17;;;;;;;2.20;2.00;;;8.20;76.20;;;;;;5072069;28;20029;-11
2023/01/16 13:01:52;;;;;;;3.00;2.15;;;8.10;76.90;;;;;;5072364;28;20028;-11
2023/01/16 13:04:33;;;;;;;2.85;2.30;;;8.00;76.80;;;;;;5072460;28;20548;-11
2023/01/16 13:07:00;;;;;;;3.42;2.50;;;8.00;77.30;;;;;;5072136;28;20024;-13
2023/01/16 13:09:38;;;;;;;3.60;2.30;;;7.90;77.30;;;;;;5071988;28;20044;-12
2023/01/16 13:15:09;;;;;;;2.47;2.10;;;7.80;78.10;;;;;;5072266;28;20086;-11
2023/01/16 13:17:50;;;;;;;2.45;1.90;;;7.90;77.60;;;;;;5072063;28;20077;-11
2023/01/16 13:20:19;;;;;;;3.40;2.10;;;7.80;77.70;;;;;;5072270;28;20503;-12
2023/01/16 13:22:52;;;;;;;2.17;1.85;;;7.80;77.80;;;;;;5072153;28;20029;-11
2023/01/16 13:25:24;;;;;;;4.75;2.47;;;7.70;78.00;;;;;;5072289;28;20060;-11
2023/01/16 13:27:59;;;;;;;3.38;2.60;;;7.90;77.40;;;;;;5071568;28;20052;-12
2023/01/16 13:30:25;;;;;;;6.22;3.35;;;7.90;77.30;;;;;;5072378;28;20404;-12
2023/01/16 13:33:10;;;;;;;4.22;2.80;;;7.80;78.60;;;;;;5071777;28;20525;-12
2023/01/16 13:35:46;;;;;;;4.45;2.90;;;7.70;79.00;;;;;;5071905;28;20025;-11
2023/01/16 13:38:15;;;;;;;4.57;2.50;;;7.60;79.60;;;;;;5071846;28;20036;-12
2023/01/16 13:41:11;;;;;;;2.63;1.70;;;7.70;78.60;;;;;;5072134;28;20025;-11
2023/01/16 13:46:48;;;;;;;3.72;2.60;;;7.70;79.00;;;;;;5064896;28;20035;-12
2023/01/16 13:49:24;;;;;;;2.63;2.30;;;7.60;79.50;;;;;;5075367;28;20036;-11
2023/01/16 13:51:52;;;;;;;4.32;2.78;;;7.60;79.00;;;;;;5075690;28;20078;-11
2023/01/16 13:54:43;;;;;;;4.28;2.80;;;7.60;79.70;;;;;;5075131;28;20086;-12
2023/01/16 13:57:13;;;;;;;4.82;2.80;;;7.50;79.50;;;;;;5075340;28;20081;-11
2023/01/16 13:59:42;;;;;;;5.07;2.67;;;7.50;79.80;;;;;;5074681;28;20028;-12
2023/01/16 14:02:42;;;;;;;3.40;2.83;;;7.50;79.70;;;;;;5075188;28;20029;-11
2023/01/16 14:05:16;;;;;;;3.42;2.60;;;7.50;79.40;;;;;;5074927;28;20035;-12